Time;durP1;ratioP1;P1;durP2;ratioP2;P2;SDS_P1;SDS_P2;PMS_P1;PMS_P2;Temp;Humidity;BMP_temperature;BMP_pressure;BME280_temperature;BME280_humidity;BME280_pressure;Samples;Min_cycle;Max_cycle;Signal;HPM_P1;HPM_P2
2022/12/15 00:40:17;;;;;;;6.45;4.32;;;-1.30;99.90;;;;;;4933142;29;20052;-71
2022/12/15 00:42:49;;;;;;;4.60;3.47;;;-1.30;99.90;;;;;;4932767;29;20055;-71
2022/12/15 00:45:17;;;;;;;5.18;3.70;;;-1.30;99.90;;;;;;4932997;29;20509;-72
2022/12/15 00:47:43;;;;;;;4.85;3.92;;;-1.30;99.90;;;;;;4932675;29;20142;-71
2022/12/15 01:20:33;;;;;;;5.72;4.32;;;-1.30;99.90;;;;;;4870596;29;20070;-71
2022/12/15 01:23:01;;;;;;;5.82;3.40;;;-1.30;99.90;;;;;;4896060;29;20580;-70
2022/12/15 01:25:28;;;;;;;7.93;4.55;;;-1.30;99.90;;;;;;4917672;29;20436;-70
2022/12/15 01:27:56;;;;;;;8.02;4.45;;;-1.30;99.90;;;;;;4918643;29;20052;-70
2022/12/15 01:30:26;;;;;;;8.60;4.57;;;-1.30;99.90;;;;;;4919291;29;20063;-71
2022/12/15 01:32:54;;;;;;;8.00;4.05;;;-1.20;99.90;;;;;;4918989;29;20040;-71
2022/12/15 01:35:22;;;;;;;6.80;3.85;;;-1.20;99.90;;;;;;4918981;29;20075;-69
2022/12/15 01:37:49;;;;;;;5.63;4.53;;;-1.20;99.90;;;;;;4933738;29;20110;-70
2022/12/15 01:43:10;;;;;;;6.43;4.78;;;-1.20;99.90;;;;;;4933943;29;20103;-70
2022/12/15 01:45:51;;;;;;;7.45;4.65;;;-1.30;99.90;;;;;;4919095;29;20070;-70
2022/12/15 01:48:26;;;;;;;5.60;4.38;;;-1.30;99.90;;;;;;4936118;29;20059;-70
2022/12/15 01:51:06;;;;;;;10.98;5.97;;;-1.30;99.90;;;;;;4935612;29;20405;-70
2022/12/15 01:53:40;;;;;;;6.30;4.15;;;-1.30;99.90;;;;;;4934159;29;20401;-71
2022/12/15 01:56:09;;;;;;;7.18;5.03;;;-1.30;99.90;;;;;;4935637;29;20060;-71
2022/12/15 01:58:41;;;;;;;5.15;3.78;;;-1.30;99.90;;;;;;4935773;29;20519;-69
2022/12/15 02:01:10;;;;;;;6.88;5.18;;;-1.30;99.90;;;;;;4935714;29;20076;-70
2022/12/15 02:03:40;;;;;;;6.32;4.40;;;-1.30;99.90;;;;;;4935653;29;20053;-71
2022/12/15 02:06:09;;;;;;;6.80;4.82;;;-1.30;99.90;;;;;;4936696;29;20048;-70
2022/12/15 02:08:37;;;;;;;6.65;4.72;;;-1.40;99.90;;;;;;4935381;29;20512;-70
2022/12/15 02:11:44;;;;;;;6.05;4.38;;;-1.40;99.90;;;;;;4934476;29;20052;-71
2022/12/15 02:14:17;;;;;;;7.82;4.57;;;-1.40;99.90;;;;;;4924146;29;20044;-69
2022/12/15 02:17:02;;;;;;;8.10;5.25;;;-1.40;99.90;;;;;;4914217;29;20076;-70
2022/12/15 02:20:17;;;;;;;7.03;4.45;;;-1.40;99.90;;;;;;4927706;29;20146;-71
2022/12/15 02:23:37;;;;;;;6.22;4.32;;;-1.40;99.90;;;;;;4907148;29;20055;-70
2022/12/15 02:26:40;;;;;;;7.32;4.50;;;-1.40;99.90;;;;;;4942270;29;20059;-70
2022/12/15 02:29:29;;;;;;;8.55;4.97;;;-1.50;99.90;;;;;;4934328;29;20158;-70
2022/12/15 02:32:03;;;;;;;7.63;4.78;;;-1.50;99.90;;;;;;4935145;29;20083;-70
2022/12/15 02:34:40;;;;;;;6.93;4.00;;;-1.60;99.90;;;;;;4933811;29;20155;-70
2022/12/15 02:37:13;;;;;;;9.73;4.43;;;-1.60;99.90;;;;;;4916899;29;20039;-71
2022/12/15 02:39:41;;;;;;;7.03;4.70;;;-1.70;99.90;;;;;;4918002;29;20068;-70
2022/12/15 02:42:10;;;;;;;9.82;5.55;;;-1.60;99.90;;;;;;4934936;29;20052;-69
2022/12/15 02:44:43;;;;;;;7.82;4.50;;;-1.70;99.90;;;;;;4934926;29;20056;-70
2022/12/15 02:47:32;;;;;;;11.30;5.35;;;-1.70;99.90;;;;;;4932763;29;20055;-70
2022/12/15 02:50:22;;;;;;;9.82;5.25;;;-1.70;99.90;;;;;;4899429;29;20052;-70
2022/12/15 02:53:03;;;;;;;9.82;5.65;;;-1.70;99.90;;;;;;4933310;29;20475;-71
2022/12/15 02:55:41;;;;;;;9.10;5.30;;;-1.80;99.90;;;;;;4934997;29;20154;-70
2022/12/15 02:58:20;;;;;;;8.35;5.40;;;-1.80;99.90;;;;;;4934841;29;20056;-70
2022/12/15 03:00:54;;;;;;;8.23;5.72;;;-1.80;99.90;;;;;;4933897;29;20055;-70
2022/12/15 03:03:25;;;;;;;6.45;5.70;;;-1.90;99.90;;;;;;4924960;29;20055;-70
2022/12/15 03:05:54;;;;;;;7.95;5.43;;;-1.90;99.90;;;;;;4935373;29;20114;-69
2022/12/15 03:08:21;;;;;;;9.13;5.93;;;-1.90;99.90;;;;;;4917059;29;20071;-70
2022/12/15 03:10:51;;;;;;;7.75;4.90;;;-2.00;99.90;;;;;;4932793;29;20052;-70
2022/12/15 03:13:23;;;;;;;8.52;5.07;;;-2.10;99.90;;;;;;4919919;29;20092;-70
2022/12/15 03:15:51;;;;;;;7.72;5.32;;;-2.20;99.90;;;;;;4934692;29;20052;-70
2022/12/15 03:18:19;;;;;;;7.85;5.07;;;-2.20;99.90;;;;;;4916986;29;20048;-71
2022/12/15 03:20:52;;;;;;;8.73;4.93;;;-2.30;99.90;;;;;;4932630;29;20111;-70
2022/12/15 03:23:21;;;;;;;9.10;5.60;;;-2.40;99.90;;;;;;4933898;29;20056;-71
2022/12/15 03:25:49;;;;;;;12.82;5.80;;;-2.40;99.90;;;;;;4933000;29;20067;-70
2022/12/15 03:28:16;;;;;;;10.25;5.82;;;-2.50;99.90;;;;;;4934682;29;20420;-71
2022/12/15 03:30:44;;;;;;;9.68;5.00;;;-2.50;99.90;;;;;;4917511;29;20524;-70
2022/12/15 03:33:11;;;;;;;9.93;5.20;;;-2.60;99.90;;;;;;4933477;29;20048;-70
2022/12/15 03:35:39;;;;;;;10.85;5.50;;;-2.70;99.90;;;;;;4916203;29;20452;-70
2022/12/15 03:38:08;;;;;;;11.00;6.43;;;-2.80;99.90;;;;;;4934037;29;20052;-70
2022/12/15 03:40:35;;;;;;;10.63;6.22;;;-2.80;99.90;;;;;;4933541;29;20054;-70
2022/12/15 03:43:03;;;;;;;9.50;5.63;;;-2.80;99.90;;;;;;4933276;29;20090;-70
2022/12/15 03:45:30;;;;;;;11.25;5.57;;;-2.80;99.90;;;;;;4934377;29;20055;-71
2022/12/15 03:47:58;;;;;;;10.40;6.05;;;-2.90;99.90;;;;;;4933408;29;20083;-70
2022/12/15 03:50:28;;;;;;;10.88;6.40;;;-2.90;99.90;;;;;;4914969;29;20513;-71
2022/12/15 03:52:58;;;;;;;10.23;6.40;;;-3.00;99.90;;;;;;4908066;29;20111;-69
2022/12/15 03:55:28;;;;;;;12.90;5.10;;;-3.00;99.90;;;;;;4933831;29;20064;-69
2022/12/15 03:57:57;;;;;;;11.75;6.57;;;-3.00;99.90;;;;;;4933842;29;20228;-69
2022/12/15 04:00:26;;;;;;;15.25;6.45;;;-3.00;99.90;;;;;;4915863;29;20051;-71
2022/12/15 04:02:54;;;;;;;9.50;5.90;;;-2.90;99.90;;;;;;4915312;29;20055;-71
2022/12/15 04:05:25;;;;;;;10.38;6.18;;;-3.00;99.90;;;;;;4933403;29;20425;-69
2022/12/15 04:07:53;;;;;;;15.23;7.72;;;-3.10;99.90;;;;;;4927214;29;20477;-70
2022/12/15 04:10:22;;;;;;;15.10;7.97;;;-3.10;99.90;;;;;;4921453;29;20548;-69
2022/12/15 04:12:58;;;;;;;15.30;7.63;;;-3.10;99.90;;;;;;4933127;29;20138;-70
2022/12/15 04:15:26;;;;;;;13.27;7.05;;;-3.20;99.90;;;;;;4935476;29;20055;-70
2022/12/15 04:17:53;;;;;;;17.45;7.30;;;-3.30;99.90;;;;;;4933261;29;20457;-68
2022/12/15 04:20:21;;;;;;;13.48;6.72;;;-3.20;99.90;;;;;;4930527;29;20055;-70
2022/12/15 04:22:51;;;;;;;10.70;5.90;;;-3.30;99.90;;;;;;4923558;29;20103;-69
2022/12/15 05:32:02;;;;;;;14.18;7.95;;;-3.70;99.90;;;;;;4922558;29;20062;-71
2022/12/15 05:34:34;;;;;;;15.27;7.95;;;-3.70;99.90;;;;;;4931557;29;20071;-71
2022/12/15 05:37:05;;;;;;;12.40;7.60;;;-3.80;99.90;;;;;;4915723;29;20056;-71
2022/12/15 05:39:32;;;;;;;12.45;7.40;;;-3.80;99.90;;;;;;4930408;29;20115;-76
2022/12/15 05:42:01;;;;;;;12.73;6.85;;;-3.80;99.90;;;;;;4912037;29;20059;-72
2022/12/15 05:44:30;;;;;;;12.40;7.82;;;-3.80;99.90;;;;;;4922271;29;20051;-72
2022/12/15 05:46:57;;;;;;;11.88;6.65;;;-3.80;99.90;;;;;;4911785;29;20048;-71
2022/12/15 05:49:25;;;;;;;16.30;7.90;;;-3.80;99.90;;;;;;4926273;29;20431;-70
2022/12/15 05:51:56;;;;;;;12.80;7.18;;;-3.80;99.90;;;;;;4931434;29;20146;-76
2022/12/15 05:54:24;;;;;;;14.13;7.85;;;-3.80;99.90;;;;;;4928989;29;20054;-76
2022/12/15 05:56:51;;;;;;;16.92;9.15;;;-3.80;99.90;;;;;;4925522;29;20114;-74
2022/12/15 05:59:19;;;;;;;14.85;9.00;;;-3.90;99.90;;;;;;4925109;29;20063;-76
2022/12/15 06:01:47;;;;;;;15.77;8.80;;;-3.90;99.90;;;;;;4924927;29;20055;-75
2022/12/15 06:04:15;;;;;;;16.55;8.30;;;-3.90;99.90;;;;;;4939667;29;20047;-74
2022/12/15 06:06:42;;;;;;;16.58;8.27;;;-3.90;99.90;;;;;;4930630;29;20142;-75
2022/12/15 06:09:12;;;;;;;16.08;8.40;;;-3.90;99.90;;;;;;4934957;29;20066;-74
2022/12/15 06:11:39;;;;;;;13.05;7.97;;;-3.90;99.90;;;;;;4929145;29;20055;-78
2022/12/15 06:14:07;;;;;;;20.45;8.75;;;-3.90;99.90;;;;;;4932097;29;20075;-73
2022/12/15 06:16:35;;;;;;;18.98;8.82;;;-3.90;99.90;;;;;;4934122;29;20066;-75
2022/12/15 06:19:03;;;;;;;15.57;8.98;;;-4.00;99.90;;;;;;4919396;29;20051;-79
2022/12/15 06:21:35;;;;;;;19.88;10.02;;;-4.00;99.90;;;;;;4934639;29;20059;-74
2022/12/15 06:24:05;;;;;;;17.10;8.48;;;-4.00;99.90;;;;;;4933115;29;20107;-77
2022/12/15 06:26:37;;;;;;;17.60;8.95;;;-4.10;99.90;;;;;;4889932;29;20056;-75
2022/12/15 06:29:07;;;;;;;15.70;8.77;;;-4.00;99.90;;;;;;4933358;29;20079;-76
2022/12/15 06:31:35;;;;;;;17.48;8.75;;;-4.10;99.90;;;;;;4935894;29;20055;-76
2022/12/15 06:34:07;;;;;;;16.98;8.10;;;-4.10;99.90;;;;;;4935061;29;20054;-76
2022/12/15 06:36:35;;;;;;;14.77;8.07;;;-4.10;99.90;;;;;;4935713;29;20074;-76
2022/12/15 06:39:04;;;;;;;15.70;8.48;;;-4.20;99.90;;;;;;4936512;29;20054;-75
2022/12/15 06:41:34;;;;;;;18.80;9.45;;;-4.20;99.90;;;;;;4935198;29;20619;-75
2022/12/15 06:44:02;;;;;;;17.33;9.02;;;-4.20;99.90;;;;;;4918698;29;20115;-75
2022/12/15 06:46:31;;;;;;;16.98;9.88;;;-4.30;99.90;;;;;;4935087;29;20050;-76
2022/12/15 06:48:59;;;;;;;14.23;8.48;;;-4.30;99.90;;;;;;4918397;29;20090;-76
2022/12/15 06:51:29;;;;;;;18.45;9.05;;;-4.40;99.90;;;;;;4935215;29;20134;-76
2022/12/15 06:53:56;;;;;;;14.02;8.13;;;-4.40;99.90;;;;;;4935430;29;20062;-75
2022/12/15 06:56:27;;;;;;;15.93;8.85;;;-4.40;99.90;;;;;;4935033;29;20082;-77
2022/12/15 06:58:57;;;;;;;12.70;7.80;;;-4.50;99.90;;;;;;4935171;29;20058;-76
2022/12/15 07:01:26;;;;;;;15.45;8.32;;;-4.50;99.90;;;;;;4934646;29;20051;-75
2022/12/15 07:03:55;;;;;;;13.68;7.32;;;-4.60;99.90;;;;;;4936124;29;20460;-76
2022/12/15 07:06:23;;;;;;;18.45;9.85;;;-4.50;99.90;;;;;;4932354;29;20501;-70
2022/12/15 07:08:55;;;;;;;20.10;10.25;;;-4.60;99.90;;;;;;4931130;29;20058;-76
2022/12/15 07:11:26;;;;;;;20.25;10.27;;;-4.60;99.90;;;;;;4935022;29;20079;-74
2022/12/15 07:13:55;;;;;;;18.17;9.52;;;-4.60;99.90;;;;;;4917826;29;20052;-70
2022/12/15 07:16:24;;;;;;;20.08;10.00;;;-4.60;99.90;;;;;;4932078;29;20150;-70
2022/12/15 07:18:52;;;;;;;19.80;9.43;;;-4.60;99.90;;;;;;4933673;29;20087;-69
2022/12/15 07:21:19;;;;;;;16.85;8.80;;;-4.60;99.90;;;;;;4914811;29;20044;-72
2022/12/15 07:23:47;;;;;;;15.85;9.40;;;-4.60;99.90;;;;;;4917576;29;20082;-70
2022/12/15 07:26:15;;;;;;;20.38;9.52;;;-4.60;99.90;;;;;;4934500;29;20047;-70
2022/12/15 07:28:42;;;;;;;19.45;9.63;;;-4.60;99.90;;;;;;4934894;29;20079;-71
2022/12/15 07:31:11;;;;;;;15.40;8.38;;;-4.60;99.90;;;;;;4916017;29;20062;-72
2022/12/15 07:33:39;;;;;;;16.08;8.75;;;-4.60;99.90;;;;;;4933218;29;20477;-69
2022/12/15 07:36:08;;;;;;;21.83;9.38;;;-4.50;99.90;;;;;;4934494;29;20047;-71
2022/12/15 07:38:36;;;;;;;21.80;9.93;;;-4.60;99.90;;;;;;4934847;29;20516;-71
2022/12/15 07:41:06;;;;;;;17.88;9.35;;;-4.60;99.90;;;;;;4932363;29;20131;-70
2022/12/15 07:43:34;;;;;;;13.77;8.15;;;-4.60;99.90;;;;;;4916583;29;20062;-70
2022/12/15 07:46:02;;;;;;;15.85;9.88;;;-4.60;99.90;;;;;;4934201;29;20051;-71
2022/12/15 07:48:31;;;;;;;19.55;8.52;;;-4.60;99.90;;;;;;4914423;29;20058;-71
2022/12/15 07:50:59;;;;;;;18.13;9.48;;;-4.70;99.90;;;;;;4934536;29;20039;-71
2022/12/15 07:53:28;;;;;;;17.27;9.18;;;-4.60;99.90;;;;;;4934728;29;20051;-70
2022/12/15 07:55:57;;;;;;;22.40;10.65;;;-4.70;99.90;;;;;;4909396;29;20036;-75
2022/12/15 07:58:26;;;;;;;22.05;10.38;;;-4.60;99.90;;;;;;4934572;29;20051;-75
2022/12/15 08:00:54;;;;;;;19.20;10.00;;;-4.60;99.90;;;;;;4933047;29;20416;-76
2022/12/15 08:03:21;;;;;;;16.92;9.55;;;-4.60;99.90;;;;;;4934821;29;20134;-78
2022/12/15 08:05:50;;;;;;;17.95;9.45;;;-4.60;99.90;;;;;;4917786;29;20067;-75
2022/12/15 08:08:18;;;;;;;23.10;10.50;;;-4.60;99.90;;;;;;4931280;29;20075;-75
2022/12/15 08:10:46;;;;;;;22.42;9.75;;;-4.50;99.90;;;;;;4916758;29;20053;-76
2022/12/15 08:13:14;;;;;;;30.40;10.02;;;-4.50;99.90;;;;;;4934884;29;20051;-77
2022/12/15 08:15:42;;;;;;;18.55;9.57;;;-4.50;99.90;;;;;;4905641;29;20535;-79
2022/12/15 08:18:09;;;;;;;17.42;8.75;;;-4.50;99.90;;;;;;4932477;29;20175;-76
2022/12/15 08:20:37;;;;;;;17.00;9.02;;;-4.60;99.90;;;;;;4929271;29;20464;-76
2022/12/15 08:23:06;;;;;;;18.60;9.38;;;-4.60;99.90;;;;;;4931377;29;20043;-76
2022/12/15 08:25:33;;;;;;;20.33;10.00;;;-4.60;99.90;;;;;;4933347;29;20056;-74
2022/12/15 08:28:01;;;;;;;15.68;7.28;;;-4.60;99.90;;;;;;4932056;29;20051;-77
2022/12/15 08:30:29;;;;;;;20.00;10.88;;;-4.60;99.90;;;;;;4947597;28;20046;-71
2022/12/15 08:32:57;;;;;;;21.65;10.43;;;-4.60;99.90;;;;;;4933490;29;20126;-70
2022/12/15 08:35:24;;;;;;;20.40;10.15;;;-4.60;99.90;;;;;;4927018;29;20056;-73
2022/12/15 08:37:52;;;;;;;17.30;8.40;;;-4.70;99.90;;;;;;4928788;29;20616;-72
2022/12/15 08:40:21;;;;;;;20.02;9.80;;;-4.70;99.90;;;;;;4931544;28;20063;-74
2022/12/15 08:42:48;;;;;;;18.75;10.15;;;-4.70;99.90;;;;;;4932537;29;20488;-71
2022/12/15 08:45:16;;;;;;;23.38;10.13;;;-4.70;99.90;;;;;;4930016;29;20417;-71
2022/12/15 08:47:43;;;;;;;21.27;9.25;;;-4.70;99.90;;;;;;4914018;29;20130;-72
2022/12/15 08:50:12;;;;;;;17.67;10.32;;;-4.70;99.90;;;;;;4926499;29;20048;-73
2022/12/15 08:52:41;;;;;;;17.75;9.35;;;-4.70;99.90;;;;;;4925950;29;20485;-75
2022/12/15 08:55:11;;;;;;;19.10;10.23;;;-4.70;99.90;;;;;;4913059;29;20051;-78
2022/12/15 08:57:40;;;;;;;21.23;11.15;;;-4.70;99.90;;;;;;4926531;29;20048;-70
2022/12/15 09:00:12;;;;;;;18.92;9.82;;;-4.70;99.90;;;;;;4909261;29;20434;-72
2022/12/15 09:02:40;;;;;;;19.98;9.40;;;-4.80;99.90;;;;;;4922682;29;20142;-72
2022/12/15 09:05:09;;;;;;;21.55;11.07;;;-4.70;99.90;;;;;;4906440;29;20456;-75
2022/12/15 09:07:37;;;;;;;19.73;10.50;;;-4.80;99.90;;;;;;4928477;29;20143;-74
2022/12/15 09:10:06;;;;;;;18.20;8.60;;;-4.80;99.90;;;;;;4907806;29;20050;-73
2022/12/15 09:12:36;;;;;;;23.77;11.52;;;-4.80;99.90;;;;;;4907499;29;20064;-72
2022/12/15 09:15:07;;;;;;;23.33;11.25;;;-4.80;99.90;;;;;;4939388;28;20095;-73
2022/12/15 09:17:35;;;;;;;18.83;10.00;;;-4.90;99.90;;;;;;4924740;29;20062;-74
2022/12/15 09:20:04;;;;;;;20.20;9.57;;;-4.80;99.90;;;;;;4916394;29;20052;-75
2022/12/15 09:22:32;;;;;;;28.40;12.43;;;-4.90;99.90;;;;;;4908553;29;20060;-73
2022/12/15 09:25:02;;;;;;;22.50;11.23;;;-4.90;99.90;;;;;;4927084;29;20170;-74
2022/12/15 09:27:31;;;;;;;27.25;11.18;;;-4.90;99.90;;;;;;4908145;29;20449;-70
2022/12/15 09:30:00;;;;;;;24.08;11.80;;;-4.90;99.90;;;;;;4933212;29;20055;-69
2022/12/15 09:32:29;;;;;;;17.85;9.85;;;-4.90;99.90;;;;;;4929439;29;20363;-70
2022/12/15 09:34:59;;;;;;;22.70;11.57;;;-4.90;99.90;;;;;;4927700;29;20464;-71
2022/12/15 09:37:26;;;;;;;23.13;10.57;;;-4.90;99.90;;;;;;4927515;29;20093;-70
2022/12/15 09:39:54;;;;;;;24.20;11.48;;;-4.90;99.90;;;;;;4916165;29;20046;-74
2022/12/15 09:42:32;;;;;;;17.67;10.23;;;-5.00;99.90;;;;;;4930373;29;20339;-75
2022/12/15 09:45:11;;;;;;;24.63;11.68;;;-4.90;99.90;;;;;;4920192;29;20048;-70
2022/12/15 09:47:57;;;;;;;26.40;12.30;;;-4.90;99.90;;;;;;4934038;29;20142;-71
2022/12/15 09:50:34;;;;;;;28.35;12.60;;;-4.90;99.90;;;;;;4914167;29;20531;-73
2022/12/15 09:53:19;;;;;;;24.75;10.60;;;-4.80;99.90;;;;;;4883105;29;20053;-74
2022/12/15 09:56:09;;;;;;;23.77;10.07;;;-4.70;99.90;;;;;;4923741;29;20048;-71
2022/12/15 09:58:57;;;;;;;19.92;9.68;;;-4.60;99.90;;;;;;4914303;29;20060;-73
2022/12/15 10:02:15;;;;;;;28.13;12.10;;;-4.50;99.90;;;;;;4914665;29;20056;-74
2022/12/15 10:05:23;;;;;;;21.10;10.77;;;-4.60;99.90;;;;;;4913143;29;20159;-73
2022/12/15 10:07:50;;;;;;;16.67;7.60;;;-4.60;99.90;;;;;;4906713;29;20135;-71
2022/12/15 10:10:32;;;;;;;17.98;9.05;;;-4.50;99.90;;;;;;4915517;29;20497;-70
2022/12/15 10:13:13;;;;;;;25.42;11.27;;;-4.50;99.90;;;;;;4915570;29;20066;-71
2022/12/15 10:15:46;;;;;;;19.65;9.40;;;-4.50;99.90;;;;;;4899773;29;20155;-75
2022/12/15 10:18:23;;;;;;;21.17;9.65;;;-4.60;99.90;;;;;;4904933;29;20079;-76
2022/12/15 10:20:55;;;;;;;18.15;9.10;;;-4.70;99.90;;;;;;4934075;29;20055;-76
2022/12/15 10:23:25;;;;;;;;;;;-4.80;99.90;;;;;;4929426;29;20070;-71
2022/12/15 10:26:01;;;;;;;22.45;10.85;;;-4.80;99.90;;;;;;4915539;29;20022;-70
2022/12/15 10:28:57;;;;;;;26.08;12.32;;;-4.80;99.90;;;;;;4915066;29;20476;-69
2022/12/15 10:31:35;;;;;;;26.95;11.52;;;-4.80;99.90;;;;;;4899726;29;20145;-70
2022/12/15 10:34:23;;;;;;;26.15;12.23;;;-4.90;99.90;;;;;;4911190;29;20056;-70
2022/12/15 10:36:55;;;;;;;24.85;12.00;;;-4.90;99.90;;;;;;4916030;29;20084;-71
2022/12/15 10:39:31;;;;;;;16.63;7.05;;;-4.80;99.90;;;;;;4914147;29;20099;-72
2022/12/15 10:42:16;;;;;;;25.88;11.77;;;-4.80;99.90;;;;;;4901810;29;20513;-72
2022/12/15 10:44:46;;;;;;;29.42;12.30;;;-4.80;99.90;;;;;;4913417;29;20059;-73
2022/12/15 10:47:23;;;;;;;20.55;9.32;;;-4.70;99.90;;;;;;4915951;29;20056;-73
2022/12/15 10:49:51;;;;;;;30.50;13.15;;;-4.70;99.90;;;;;;4923378;29;20568;-72
2022/12/15 10:52:31;;;;;;;22.38;11.25;;;-4.70;99.90;;;;;;4914210;29;20147;-73
2022/12/15 10:54:59;;;;;;;21.90;10.82;;;-4.70;99.90;;;;;;4883883;29;20055;-72
2022/12/15 10:57:30;;;;;;;17.98;8.82;;;-4.70;99.90;;;;;;4908372;29;20494;-74
2022/12/15 11:00:32;;;;;;;21.10;10.48;;;-4.60;99.90;;;;;;4916728;29;20068;-76
2022/12/15 11:03:00;;;;;;;18.85;9.93;;;-4.80;99.90;;;;;;4920998;29;20067;-73
2022/12/15 11:05:28;;;;;;;15.52;7.15;;;-4.80;99.90;;;;;;4916314;29;20420;-71
2022/12/15 11:08:15;;;;;;;24.58;9.77;;;-4.80;99.90;;;;;;4899275;29;20059;-71
2022/12/15 11:14:28;;;;;;;20.40;11.13;;;-5.00;99.90;;;;;;4897164;29;20056;-73
2022/12/15 11:17:33;;;;;;;22.55;11.88;;;-5.20;99.90;;;;;;4903198;29;20068;-78
2022/12/15 11:20:22;;;;;;;23.17;9.65;;;-5.30;99.90;;;;;;4927559;29;20119;-75
2022/12/15 11:22:58;;;;;;;21.10;9.93;;;-5.30;99.90;;;;;;4897501;29;20086;-76
2022/12/15 11:25:35;;;;;;;19.55;10.32;;;-5.20;99.90;;;;;;4912252;29;20506;-75
2022/12/15 11:28:10;;;;;;;21.05;10.70;;;-5.20;99.90;;;;;;4928154;29;20048;-75
2022/12/15 11:30:50;;;;;;;19.15;9.02;;;-5.30;99.90;;;;;;4913479;29;20428;-75
2022/12/15 11:33:18;;;;;;;19.13;10.38;;;-5.30;99.90;;;;;;4901159;29;20043;-74
2022/12/15 11:36:43;;;;;;;28.50;10.43;;;-5.30;99.90;;;;;;4888157;29;20406;-72
2022/12/15 11:40:36;;;;;;;;;;;;;;;;;;;;;
2022/12/15 11:47:29;;;;;;;23.52;10.95;;;-5.30;99.90;;;;;;4879819;29;20520;-77
2022/12/15 11:50:47;;;;;;;23.85;10.85;;;-5.40;99.90;;;;;;4914735;29;20048;-75
2022/12/15 11:54:22;;;;;;;17.10;8.68;;;-5.50;99.90;;;;;;4908130;29;20037;-77
2022/12/15 11:58:07;;;;;;;15.07;7.85;;;-5.50;99.90;;;;;;5218402;23;20023;-76
2022/12/15 12:01:14;;;;;;;16.67;8.18;;;-5.70;99.90;;;;;;4976023;28;20047;-77
2022/12/15 12:03:56;;;;;;;17.23;9.30;;;-5.90;99.90;;;;;;4962201;28;20538;-78
2022/12/15 12:06:35;;;;;;;16.27;8.77;;;-6.00;99.90;;;;;;4960606;28;20047;-77
2022/12/15 12:09:30;;;;;;;28.95;12.10;;;-5.90;99.90;;;;;;4975039;28;20476;-75
2022/12/15 12:12:13;;;;;;;14.25;7.85;;;-6.00;99.90;;;;;;4963797;28;20051;-76
2022/12/15 12:14:54;;;;;;;16.10;7.93;;;-6.10;99.90;;;;;;4951185;29;20059;-72
2022/12/15 12:17:37;;;;;;;19.60;8.45;;;-6.20;99.90;;;;;;4967369;28;20310;-71
2022/12/15 12:20:15;;;;;;;17.50;8.77;;;-6.30;99.90;;;;;;4957802;28;20061;-70
2022/12/15 12:22:56;;;;;;;18.17;8.68;;;-6.30;99.90;;;;;;4963033;28;20143;-70
2022/12/15 12:25:25;;;;;;;13.25;7.60;;;-6.30;99.90;;;;;;4964727;28;20525;-71
2022/12/15 12:28:00;;;;;;;20.50;9.48;;;-6.40;99.90;;;;;;4975817;28;20042;-75
2022/12/15 12:30:38;;;;;;;18.90;9.23;;;-6.40;99.90;;;;;;4955806;28;20047;-75
2022/12/15 12:33:14;;;;;;;15.93;8.18;;;-6.40;99.90;;;;;;4958047;28;20083;-70
2022/12/15 12:35:46;;;;;;;17.35;9.48;;;-6.50;99.90;;;;;;4967234;28;20991;-70
2022/12/15 12:38:17;;;;;;;18.17;9.95;;;-6.50;99.90;;;;;;4961582;28;20078;-70
2022/12/15 12:41:02;;;;;;;18.23;9.52;;;-6.50;99.90;;;;;;4936517;29;20587;-71
2022/12/15 12:43:36;;;;;;;19.73;9.75;;;-6.60;99.90;;;;;;4966594;28;20141;-70
2022/12/15 12:46:10;;;;;;;15.23;7.53;;;-6.60;99.90;;;;;;4967250;28;20042;-71
2022/12/15 12:48:44;;;;;;;17.17;8.88;;;-6.60;99.90;;;;;;4958851;28;20577;-73
2022/12/15 12:51:24;;;;;;;19.23;8.98;;;-6.70;99.90;;;;;;4960114;28;20502;-76
2022/12/15 12:53:53;;;;;;;17.35;9.23;;;-6.70;99.90;;;;;;4966366;28;20073;-74
2022/12/15 12:56:35;;;;;;;17.88;8.18;;;-6.70;99.90;;;;;;4964516;28;20065;-76
2022/12/15 12:59:07;;;;;;;13.57;8.25;;;-6.70;99.90;;;;;;4971265;28;20427;-75
2022/12/15 13:01:37;;;;;;;14.82;8.35;;;-6.60;99.90;;;;;;4966848;28;20531;-76
2022/12/15 13:04:09;;;;;;;16.67;8.73;;;-6.70;99.90;;;;;;4969878;28;20404;-74
2022/12/15 13:07:02;;;;;;;17.10;8.77;;;-6.80;99.90;;;;;;4961511;28;20101;-73
2022/12/15 13:09:47;;;;;;;;;;;-6.80;99.90;;;;;;4957360;28;20066;-74
2022/12/15 13:12:38;;;;;;;19.65;9.32;;;-6.90;99.90;;;;;;4963649;28;19926;-74
2022/12/15 13:15:14;;;;;;;16.55;8.70;;;-6.90;99.90;;;;;;4964947;28;20057;-73
2022/12/15 13:17:49;;;;;;;18.48;8.85;;;-7.00;99.90;;;;;;4967159;28;20055;-73
2022/12/15 13:20:25;;;;;;;21.15;8.63;;;-7.00;99.90;;;;;;4971491;28;20061;-70
2022/12/15 13:23:10;;;;;;;16.40;8.60;;;-7.00;99.90;;;;;;4964886;28;20051;-69
2022/12/15 13:25:43;;;;;;;14.90;7.57;;;-6.90;99.90;;;;;;4954600;28;20537;-76
2022/12/15 13:28:31;;;;;;;20.75;8.65;;;-6.90;99.90;;;;;;4955359;28;20058;-75
2022/12/15 13:31:49;;;;;;;19.08;8.20;;;-7.00;99.90;;;;;;4958665;28;20077;-69
2022/12/15 13:34:25;;;;;;;15.60;7.93;;;-7.00;99.90;;;;;;4969642;28;20119;-71
2022/12/15 13:37:01;;;;;;;20.65;8.52;;;-6.90;99.90;;;;;;4964062;28;20543;-77
2022/12/15 13:39:56;;;;;;;12.00;6.72;;;-6.90;99.90;;;;;;4973139;28;20054;-74
2022/12/15 13:42:36;;;;;;;18.80;8.52;;;-6.90;99.90;;;;;;4968659;28;20527;-74
2022/12/15 13:45:41;;;;;;;16.92;7.75;;;-6.80;99.90;;;;;;4973426;28;20046;-75
2022/12/15 13:48:26;;;;;;;13.80;7.47;;;-6.80;99.90;;;;;;4970168;28;20086;-75
2022/12/15 13:51:12;;;;;;;19.45;8.40;;;-6.90;99.90;;;;;;4966865;28;20057;-75
2022/12/15 13:53:45;;;;;;;16.02;8.30;;;-6.90;99.90;;;;;;4972154;28;20066;-75
2022/12/15 13:56:28;;;;;;;18.65;8.35;;;-6.90;99.90;;;;;;4957876;28;20471;-75
2022/12/15 13:59:04;;;;;;;17.20;8.63;;;-7.00;99.90;;;;;;4971899;28;20337;-75
2022/12/15 14:01:32;;;;;;;13.52;7.70;;;-7.00;99.90;;;;;;4968264;28;20451;-75
2022/12/15 14:04:06;;;;;;;12.93;7.97;;;-7.00;99.90;;;;;;4969639;28;20038;-74
2022/12/15 14:06:52;;;;;;;13.38;7.75;;;-7.00;99.90;;;;;;4967935;28;20085;-75
2022/12/15 14:09:26;;;;;;;16.33;8.00;;;-7.00;99.90;;;;;;4969830;28;20109;-71
2022/12/15 14:11:54;;;;;;;14.85;8.25;;;-7.00;99.90;;;;;;4965995;28;20081;-70
2022/12/15 14:14:25;;;;;;;18.63;8.73;;;-7.00;99.90;;;;;;4964697;28;20043;-70
2022/12/15 14:16:59;;;;;;;19.05;8.77;;;-7.10;99.90;;;;;;4964710;28;20431;-71
2022/12/15 14:19:27;;;;;;;16.20;8.55;;;-7.10;99.90;;;;;;4958602;28;20135;-72
2022/12/15 14:21:58;;;;;;;17.88;7.70;;;-7.10;99.90;;;;;;4949782;29;20047;-71
2022/12/15 14:24:30;;;;;;;15.85;8.57;;;-7.10;99.90;;;;;;4963729;28;20145;-72
2022/12/15 14:26:59;;;;;;;18.30;8.60;;;-7.10;99.90;;;;;;4971493;28;20095;-76
2022/12/15 14:29:27;;;;;;;19.38;9.20;;;-7.00;99.90;;;;;;4965877;28;20043;-75
2022/12/15 14:31:58;;;;;;;13.32;7.70;;;-7.10;99.90;;;;;;4965790;28;20058;-72
2022/12/15 14:34:31;;;;;;;19.08;9.73;;;-7.00;99.90;;;;;;4949240;28;20137;-73
2022/12/15 14:37:08;;;;;;;16.83;8.70;;;-7.00;99.90;;;;;;4966614;28;20055;-73
2022/12/15 14:39:40;;;;;;;15.10;7.57;;;-7.00;99.90;;;;;;4979045;28;20059;-74
2022/12/15 14:42:16;;;;;;;17.13;8.88;;;-7.00;99.90;;;;;;4969333;28;20105;-73
2022/12/15 14:44:46;;;;;;;17.73;8.98;;;-7.00;99.90;;;;;;4961516;28;20182;-70
2022/12/15 14:47:25;;;;;;;20.15;9.75;;;-7.00;99.90;;;;;;4960851;28;20073;-78
2022/12/15 14:49:56;;;;;;;17.70;7.93;;;-7.00;99.90;;;;;;4965245;28;20117;-72
2022/12/15 14:52:31;;;;;;;16.95;9.15;;;-7.10;99.90;;;;;;4968312;28;20055;-72
2022/12/15 14:55:02;;;;;;;17.35;9.00;;;-7.10;99.90;;;;;;4972953;28;20062;-73
2022/12/15 14:57:44;;;;;;;14.45;8.25;;;-7.10;99.90;;;;;;4971491;28;20053;-74
2022/12/15 15:00:29;;;;;;;12.60;7.63;;;-7.10;99.90;;;;;;4964089;28;20046;-71
2022/12/15 15:03:21;;;;;;;12.00;7.25;;;-7.10;99.90;;;;;;4971824;28;20086;-74
2022/12/15 15:05:56;;;;;;;14.57;7.28;;;-7.00;99.90;;;;;;4972874;28;20059;-74
2022/12/15 15:08:29;;;;;;;13.88;7.43;;;-7.00;99.90;;;;;;4976002;28;20508;-75
2022/12/15 15:11:04;;;;;;;13.95;8.13;;;-7.00;99.90;;;;;;4952809;28;20051;-72
2022/12/15 15:13:45;;;;;;;11.70;7.97;;;-7.00;99.90;;;;;;4952553;29;20463;-73
2022/12/15 15:16:17;;;;;;;17.02;8.40;;;-6.90;99.90;;;;;;4955620;28;20046;-73
2022/12/15 15:18:50;;;;;;;14.40;7.75;;;-6.80;99.90;;;;;;4968446;28;20542;-72
2022/12/15 15:21:23;;;;;;;15.23;8.00;;;-6.80;99.90;;;;;;4970564;28;20043;-77
2022/12/15 15:24:04;;;;;;;16.70;8.90;;;-6.70;99.90;;;;;;4972981;28;20101;-74
2022/12/15 15:26:32;;;;;;;20.20;9.25;;;-6.70;99.90;;;;;;4967254;28;20149;-72
2022/12/15 15:29:00;;;;;;;13.07;8.13;;;-6.70;99.90;;;;;;4971785;28;20047;-73
2022/12/15 15:31:31;;;;;;;15.27;7.55;;;-6.80;99.90;;;;;;4981064;28;20070;-72
2022/12/15 15:33:59;;;;;;;21.60;9.27;;;-6.80;99.90;;;;;;4955156;28;20081;-80
2022/12/15 15:36:33;;;;;;;17.48;9.63;;;-6.90;99.90;;;;;;4972386;28;20539;-75
2022/12/15 15:39:12;;;;;;;19.23;9.88;;;-6.90;99.90;;;;;;4944898;28;20059;-74
2022/12/15 15:41:40;;;;;;;15.32;8.15;;;-7.00;99.90;;;;;;4963980;28;20154;-79
2022/12/15 15:44:14;;;;;;;25.27;9.68;;;-7.00;99.90;;;;;;4952321;28;20135;-76